Time;durP1;ratioP1;P1;durP2;ratioP2;P2;SDS_P1;SDS_P2;PMS_P1;PMS_P2;Temp;Humidity;BMP_temperature;BMP_pressure;BME280_temperature;BME280_humidity;BME280_pressure;Samples;Min_cycle;Max_cycle;Signal;HPM_P1;HPM_P2
2023/12/30 00:00:14;;;;;;;3.23;3.03;;;5.20;99.90;;;;;;5058592;28;20620;-78
2023/12/30 00:02:40;;;;;;;4.07;3.20;;;5.40;99.90;;;;;;5039369;28;20188;-82
2023/12/30 00:05:07;;;;;;;4.07;3.23;;;5.20;99.90;;;;;;5037422;28;20257;-82
2023/12/30 00:07:32;;;;;;;4.00;3.60;;;5.10;99.90;;;;;;5036807;28;20178;-82
2023/12/30 00:09:58;;;;;;;4.83;3.90;;;5.10;99.90;;;;;;5034911;28;20224;-82
2023/12/30 00:12:24;;;;;;;7.43;5.67;;;5.00;99.90;;;;;;5038631;28;20251;-81
2023/12/30 00:14:49;;;;;;;8.53;6.43;;;4.80;99.90;;;;;;5038508;28;20177;-82
2023/12/30 00:17:15;;;;;;;13.47;8.07;;;4.70;99.90;;;;;;5053864;28;20170;-79
2023/12/30 00:19:44;;;;;;;12.60;9.07;;;4.60;99.90;;;;;;5044159;28;20231;-80
2023/12/30 00:22:11;;;;;;;14.33;9.70;;;4.50;99.90;;;;;;5038062;28;20174;-82
2023/12/30 00:24:37;;;;;;;12.73;9.70;;;4.30;99.90;;;;;;5037985;28;20648;-81
2023/12/30 00:27:03;;;;;;;8.97;6.23;;;4.10;99.90;;;;;;5037185;28;20184;-81
2023/12/30 00:29:28;;;;;;;12.23;7.67;;;3.80;99.90;;;;;;5046732;28;20244;-81
2023/12/30 00:31:54;;;;;;;7.90;5.63;;;3.70;99.90;;;;;;5049429;28;20174;-79
2023/12/30 00:34:20;;;;;;;5.70;4.73;;;3.60;99.90;;;;;;5042640;28;20169;-83
2023/12/30 00:36:46;;;;;;;5.77;5.20;;;3.60;99.90;;;;;;5036647;28;20181;-83
2023/12/30 00:39:12;;;;;;;8.53;6.77;;;3.70;99.90;;;;;;5038072;28;20242;-82
2023/12/30 00:41:38;;;;;;;9.30;7.37;;;3.70;99.90;;;;;;5036899;28;20184;-86
2023/12/30 00:44:03;;;;;;;9.37;7.17;;;3.60;99.90;;;;;;5037128;28;20171;-78
2023/12/30 00:46:29;;;;;;;9.83;7.03;;;3.50;99.90;;;;;;5037770;28;20181;-82
2023/12/30 00:48:55;;;;;;;6.20;5.53;;;3.50;99.90;;;;;;5036964;28;20663;-79
2023/12/30 00:51:21;;;;;;;8.60;6.20;;;3.50;99.90;;;;;;5037202;28;20172;-83
2023/12/30 00:53:46;;;;;;;6.40;5.03;;;3.40;99.90;;;;;;5047342;28;20180;-81
2023/12/30 00:56:13;;;;;;;5.03;4.53;;;3.50;99.90;;;;;;5036561;28;20593;-85
2023/12/30 00:58:38;;;;;;;7.90;6.13;;;3.60;99.90;;;;;;5035471;28;20237;-81
2023/12/30 01:01:07;;;;;;;10.63;7.97;;;3.50;99.90;;;;;;5037484;28;20199;-82
2023/12/30 01:03:32;;;;;;;15.00;9.50;;;3.50;99.90;;;;;;5043751;28;20172;-81
2023/12/30 01:05:59;;;;;;;13.53;9.13;;;3.50;99.90;;;;;;5051848;28;20217;-82
2023/12/30 01:08:24;;;;;;;15.70;8.90;;;3.20;99.90;;;;;;5037340;28;20219;-81
2023/12/30 01:10:50;;;;;;;10.80;8.67;;;3.10;99.90;;;;;;5037994;28;20217;-83
2023/12/30 01:13:16;;;;;;;16.13;9.60;;;3.00;99.90;;;;;;5035997;28;20649;-79
2023/12/30 01:15:42;;;;;;;13.27;9.50;;;3.00;99.90;;;;;;5035368;28;20783;-80
2023/12/30 01:18:08;;;;;;;16.13;10.67;;;3.00;99.90;;;;;;5035858;28;20235;-81
2023/12/30 01:20:34;;;;;;;13.27;10.00;;;2.90;99.90;;;;;;5036323;28;20183;-83
2023/12/30 01:22:59;;;;;;;14.33;10.10;;;2.80;99.90;;;;;;5035714;28;20527;-83
2023/12/30 01:25:25;;;;;;;12.40;9.13;;;2.80;99.90;;;;;;5036192;28;20544;-82
2023/12/30 01:27:51;;;;;;;14.83;9.57;;;2.70;99.90;;;;;;5036415;28;20666;-81
2023/12/30 01:30:17;;;;;;;13.00;8.60;;;2.70;99.90;;;;;;5036224;28;20208;-80
2023/12/30 01:32:43;;;;;;;14.50;9.40;;;2.70;99.90;;;;;;5042132;28;20187;-77
2023/12/30 01:35:08;;;;;;;14.17;9.23;;;2.60;99.90;;;;;;5053819;28;20173;-78
2023/12/30 01:37:34;;;;;;;14.20;10.20;;;2.60;99.90;;;;;;5056898;28;20183;-77
2023/12/30 01:40:01;;;;;;;17.13;10.40;;;2.60;99.90;;;;;;5042634;28;20191;-80
2023/12/30 01:42:26;;;;;;;13.13;9.07;;;2.60;99.90;;;;;;5043355;28;20642;-82
2023/12/30 01:44:52;;;;;;;16.53;9.93;;;2.60;99.90;;;;;;5037956;28;20267;-82
2023/12/30 01:47:18;;;;;;;12.63;8.73;;;2.40;99.90;;;;;;5035791;28;20176;-81
2023/12/30 01:49:44;;;;;;;12.70;8.43;;;2.50;99.90;;;;;;5034312;28;20220;-80
2023/12/30 01:52:11;;;;;;;11.43;7.97;;;2.50;99.90;;;;;;5035353;28;20173;-83
2023/12/30 01:54:38;;;;;;;12.03;9.13;;;2.40;99.90;;;;;;5035174;28;20209;-80
2023/12/30 01:57:04;;;;;;;15.63;8.77;;;2.40;99.90;;;;;;5035136;28;20183;-81
2023/12/30 01:59:31;;;;;;;14.63;8.50;;;2.40;99.90;;;;;;5033672;28;20196;-81
2023/12/30 02:01:57;;;;;;;11.30;8.53;;;2.30;99.90;;;;;;5035096;28;20190;-79
2023/12/30 02:04:24;;;;;;;13.73;8.83;;;2.40;99.90;;;;;;5036116;28;20631;-82
2023/12/30 02:06:50;;;;;;;12.87;8.43;;;2.40;99.90;;;;;;5033639;28;20194;-82
2023/12/30 02:09:16;;;;;;;11.07;8.33;;;2.40;99.90;;;;;;5034231;28;20312;-81
2023/12/30 02:11:43;;;;;;;12.90;8.40;;;2.30;99.90;;;;;;5033269;28;20217;-82
2023/12/30 02:14:24;;;;;;;13.03;8.53;;;2.30;99.90;;;;;;5034645;28;20185;-83
2023/12/30 02:16:50;;;;;;;13.17;9.10;;;2.20;99.90;;;;;;5034329;28;20178;-82
2023/12/30 02:19:16;;;;;;;12.10;8.43;;;2.30;99.90;;;;;;5034861;28;20707;-78
2023/12/30 02:21:42;;;;;;;13.40;8.67;;;2.30;99.90;;;;;;5033785;28;20185;-81
2023/12/30 02:24:08;;;;;;;12.37;8.87;;;2.30;99.90;;;;;;5036340;28;20189;-82
2023/12/30 02:26:33;;;;;;;12.37;8.37;;;2.30;99.90;;;;;;5037311;28;20511;-80
2023/12/30 02:28:59;;;;;;;12.73;9.23;;;2.40;99.90;;;;;;5051743;28;20232;-82
2023/12/30 02:31:25;;;;;;;11.77;8.83;;;2.40;99.90;;;;;;5041399;28;20176;-83
2023/12/30 02:33:50;;;;;;;12.37;8.50;;;2.30;99.90;;;;;;5046658;28;20234;-81
2023/12/30 02:36:16;;;;;;;13.63;7.87;;;2.30;99.90;;;;;;5045900;28;20749;-82
2023/12/30 02:38:42;;;;;;;10.97;8.53;;;2.20;99.90;;;;;;5047530;28;20700;-82
2023/12/30 02:41:08;;;;;;;11.87;8.87;;;2.20;99.90;;;;;;5048425;28;20246;-81
2023/12/30 02:43:46;;;;;;;12.20;7.63;;;2.20;99.90;;;;;;5047219;28;20177;-83
2023/12/30 02:46:12;;;;;;;13.30;8.63;;;2.20;99.90;;;;;;5034863;28;20186;-81
2023/12/30 02:48:38;;;;;;;10.73;7.87;;;2.10;99.90;;;;;;5035645;28;20174;-78
2023/12/30 02:51:04;;;;;;;12.47;8.23;;;2.10;99.90;;;;;;5055923;28;20184;-81
2023/12/30 02:53:30;;;;;;;10.30;7.67;;;2.10;99.90;;;;;;5047827;28;20171;-81
2023/12/30 02:55:55;;;;;;;9.07;7.23;;;2.10;99.90;;;;;;5041847;28;20251;-81
2023/12/30 02:58:21;;;;;;;9.93;7.20;;;2.20;99.90;;;;;;5034662;28;20184;-82
2023/12/30 03:00:47;;;;;;;9.57;7.13;;;2.20;99.90;;;;;;5036768;28;20245;-83
2023/12/30 03:03:12;;;;;;;9.63;6.47;;;2.20;99.90;;;;;;5036696;28;20231;-83
2023/12/30 03:05:38;;;;;;;8.00;6.13;;;2.20;99.90;;;;;;5047478;28;20180;-82
2023/12/30 03:08:04;;;;;;;5.33;4.83;;;2.20;99.90;;;;;;5050110;28;20373;-83
2023/12/30 03:10:30;;;;;;;8.87;6.60;;;2.20;99.90;;;;;;5046681;28;20212;-83
2023/12/30 03:12:55;;;;;;;7.87;6.67;;;2.20;99.90;;;;;;5056742;28;20180;-84
2023/12/30 03:15:21;;;;;;;12.30;7.27;;;2.10;99.90;;;;;;5042724;28;20191;-84
2023/12/30 03:17:47;;;;;;;11.50;7.67;;;2.00;99.90;;;;;;5038798;28;20624;-83
2023/12/30 03:20:13;;;;;;;11.70;7.43;;;2.00;99.90;;;;;;5037585;28;20171;-84
2023/12/30 03:22:38;;;;;;;10.00;7.60;;;2.00;99.90;;;;;;5043538;28;20176;-82
2023/12/30 03:25:05;;;;;;;12.53;8.37;;;2.10;99.90;;;;;;5047030;28;20178;-82
2023/12/30 03:27:31;;;;;;;11.43;8.10;;;2.00;99.90;;;;;;5039205;28;20641;-81
2023/12/30 03:29:57;;;;;;;13.83;9.50;;;2.10;99.90;;;;;;5036795;28;20274;-80
2023/12/30 03:32:22;;;;;;;14.37;8.77;;;2.00;99.90;;;;;;5037053;28;20638;-83
2023/12/30 03:34:48;;;;;;;13.50;8.97;;;1.90;99.90;;;;;;5039431;28;20201;-82
2023/12/30 03:37:15;;;;;;;11.27;9.10;;;1.90;99.90;;;;;;5048890;28;20596;-79
2023/12/30 03:39:42;;;;;;;13.57;8.70;;;1.90;99.90;;;;;;5050247;28;20605;-82
2023/12/30 03:42:07;;;;;;;14.23;9.03;;;2.00;99.90;;;;;;5041333;28;20188;-82
2023/12/30 03:44:33;;;;;;;15.53;9.33;;;2.00;99.90;;;;;;5038685;28;20175;-83
2023/12/30 03:46:59;;;;;;;12.87;8.90;;;2.00;99.90;;;;;;5038294;28;20208;-81
2023/12/30 03:49:25;;;;;;;12.53;8.37;;;2.00;99.90;;;;;;5039354;28;20204;-82
2023/12/30 03:51:51;;;;;;;5.20;4.70;;;2.00;99.90;;;;;;5037370;28;20185;-81
2023/12/30 03:54:17;;;;;;;10.73;7.57;;;2.10;99.90;;;;;;5037892;28;20574;-83
2023/12/30 03:56:42;;;;;;;11.47;8.10;;;2.10;99.90;;;;;;5037417;28;20189;-83
2023/12/30 03:59:08;;;;;;;10.43;7.80;;;2.00;99.90;;;;;;5037020;28;20172;-81
2023/12/30 04:01:34;;;;;;;5.57;4.30;;;2.00;99.90;;;;;;5039353;28;20179;-82
2023/12/30 04:04:01;;;;;;;5.03;4.63;;;2.10;99.90;;;;;;5036806;28;20176;-83
2023/12/30 04:06:27;;;;;;;7.20;6.37;;;2.20;99.90;;;;;;5042847;28;20182;-84
2023/12/30 04:08:53;;;;;;;10.60;6.80;;;2.20;99.90;;;;;;5048900;28;20300;-84
2023/12/30 04:11:19;;;;;;;8.83;6.67;;;2.20;99.90;;;;;;5047219;28;20207;-81
2023/12/30 04:13:44;;;;;;;8.93;6.53;;;2.20;99.90;;;;;;5047219;28;20682;-83
2023/12/30 04:16:10;;;;;;;8.60;6.43;;;2.30;99.90;;;;;;5036373;28;20184;-83
2023/12/30 04:18:36;;;;;;;12.90;6.47;;;2.30;99.90;;;;;;5036632;28;20213;-83
2023/12/30 04:21:01;;;;;;;8.63;6.70;;;2.20;99.90;;;;;;5036706;28;20192;-83
2023/12/30 04:23:27;;;;;;;8.87;6.27;;;2.20;99.90;;;;;;5044439;28;20170;-83
2023/12/30 04:25:53;;;;;;;9.07;6.43;;;2.20;99.90;;;;;;5048545;28;20190;-82
2023/12/30 04:28:19;;;;;;;8.30;6.57;;;2.20;99.90;;;;;;5052375;28;20526;-83
2023/12/30 04:30:44;;;;;;;9.73;6.13;;;2.10;99.90;;;;;;5044568;28;20191;-80
2023/12/30 04:33:10;;;;;;;9.23;6.27;;;2.10;99.90;;;;;;5047137;28;20200;-82
2023/12/30 04:35:38;;;;;;;6.40;5.80;;;2.10;99.90;;;;;;5071663;28;20199;-81
2023/12/30 04:38:04;;;;;;;8.07;4.57;;;2.10;99.90;;;;;;5061975;28;20165;-84
2023/12/30 04:40:30;;;;;;;8.33;6.40;;;2.10;99.90;;;;;;5056411;28;20175;-82
2023/12/30 04:42:56;;;;;;;9.47;6.00;;;2.10;99.90;;;;;;5057409;28;20173;-79
2023/12/30 04:45:21;;;;;;;8.37;5.30;;;2.10;99.90;;;;;;5062250;28;20218;-78
2023/12/30 04:47:47;;;;;;;10.00;5.87;;;2.10;99.90;;;;;;5077054;28;20210;-83
2023/12/30 04:50:13;;;;;;;9.67;5.63;;;2.00;99.90;;;;;;5059842;28;20232;-82
2023/12/30 04:52:39;;;;;;;9.60;5.97;;;1.90;99.90;;;;;;5055808;28;20207;-81
2023/12/30 04:55:05;;;;;;;9.63;6.33;;;1.90;99.90;;;;;;5057059;28;20218;-82
2023/12/30 04:57:31;;;;;;;11.23;7.47;;;1.90;99.90;;;;;;5057433;28;20254;-82
2023/12/30 04:59:57;;;;;;;8.93;7.17;;;1.90;99.90;;;;;;5056356;28;20245;-81
2023/12/30 05:02:23;;;;;;;10.80;6.97;;;1.70;99.90;;;;;;5056701;28;20164;-84
2023/12/30 05:04:49;;;;;;;13.73;8.63;;;1.60;99.90;;;;;;5057991;28;20178;-78
2023/12/30 05:07:17;;;;;;;11.30;8.23;;;1.40;99.90;;;;;;5059267;28;20234;-82
2023/12/30 05:09:43;;;;;;;10.60;8.43;;;1.50;99.90;;;;;;5055750;28;20214;-83
2023/12/30 05:12:09;;;;;;;11.67;8.13;;;1.40;99.90;;;;;;5056036;28;20249;-77
2023/12/30 05:14:37;;;;;;;10.33;8.70;;;1.50;99.90;;;;;;5055862;28;20646;-83
2023/12/30 05:17:03;;;;;;;12.30;8.43;;;1.50;99.90;;;;;;5055572;28;20203;-82
2023/12/30 05:19:29;;;;;;;11.00;7.93;;;1.50;99.90;;;;;;5055306;28;20711;-82
2023/12/30 05:21:55;;;;;;;10.40;8.33;;;1.60;99.90;;;;;;5053968;28;20544;-80
2023/12/30 05:24:21;;;;;;;10.47;7.67;;;1.50;99.90;;;;;;5056215;28;20170;-82
2023/12/30 05:26:48;;;;;;;13.20;8.67;;;1.40;99.90;;;;;;5054496;28;20188;-83
2023/12/30 05:29:14;;;;;;;12.07;8.90;;;1.30;99.90;;;;;;5067028;28;20193;-79
2023/12/30 05:31:40;;;;;;;12.17;8.50;;;1.40;99.90;;;;;;5064912;28;20633;-83
2023/12/30 05:34:07;;;;;;;12.07;8.57;;;1.30;99.90;;;;;;5054231;28;20186;-82
2023/12/30 05:36:32;;;;;;;12.67;8.13;;;1.40;99.90;;;;;;5054921;28;20268;-84
2023/12/30 05:38:58;;;;;;;10.23;8.23;;;1.40;99.90;;;;;;5053933;28;20286;-84
2023/12/30 05:41:24;;;;;;;11.83;8.93;;;1.40;99.90;;;;;;5054810;28;20172;-81
2023/12/30 05:43:51;;;;;;;13.97;8.87;;;1.40;99.90;;;;;;5055381;28;20306;-83
2023/12/30 05:46:17;;;;;;;11.47;8.37;;;1.30;99.90;;;;;;5069015;28;20177;-82
2023/12/30 05:48:43;;;;;;;11.47;8.37;;;1.40;99.90;;;;;;5055934;28;20188;-84
2023/12/30 05:51:09;;;;;;;13.47;8.73;;;1.40;99.90;;;;;;5057256;28;20268;-84
2023/12/30 05:53:35;;;;;;;11.33;7.93;;;1.30;99.90;;;;;;5054252;28;20183;-82
2023/12/30 05:56:01;;;;;;;13.00;8.90;;;1.30;99.90;;;;;;5058162;28;20171;-81
2023/12/30 05:58:28;;;;;;;9.83;8.00;;;1.30;99.90;;;;;;5057296;28;20179;-82
2023/12/30 06:00:54;;;;;;;13.77;8.33;;;1.40;99.90;;;;;;5053638;28;20207;-83
2023/12/30 06:03:20;;;;;;;13.00;8.57;;;1.30;99.90;;;;;;5053849;28;20218;-82
2023/12/30 06:05:46;;;;;;;11.97;8.43;;;1.30;99.90;;;;;;5054736;28;20221;-83
2023/12/30 06:08:12;;;;;;;10.47;8.83;;;1.30;99.90;;;;;;5057128;28;20239;-83
2023/12/30 06:10:37;;;;;;;12.93;8.20;;;1.40;99.90;;;;;;5053268;28;20725;-83
2023/12/30 06:13:03;;;;;;;11.13;8.47;;;1.30;99.90;;;;;;5054054;28;20551;-82
2023/12/30 06:15:29;;;;;;;13.50;8.93;;;1.40;99.90;;;;;;5052911;28;20179;-82
2023/12/30 06:17:55;;;;;;;11.33;8.43;;;1.40;99.90;;;;;;5060181;28;20179;-82
2023/12/30 06:20:23;;;;;;;11.60;8.20;;;1.40;99.90;;;;;;5101785;28;20197;-79
2023/12/30 06:22:49;;;;;;;11.93;8.17;;;1.40;99.90;;;;;;5074771;28;20194;-82
2023/12/30 06:25:18;;;;;;;11.03;8.70;;;1.40;99.90;;;;;;5074411;28;20171;-81
2023/12/30 06:27:46;;;;;;;10.97;8.33;;;1.40;99.90;;;;;;5074623;28;20182;-84
2023/12/30 06:30:13;;;;;;;11.17;8.10;;;1.40;99.90;;;;;;5054799;28;20203;-84
2023/12/30 06:32:39;;;;;;;10.70;8.33;;;1.50;99.90;;;;;;5053275;28;20255;-84
2023/12/30 06:35:05;;;;;;;9.73;8.40;;;1.50;99.90;;;;;;5053358;28;20534;-82
2023/12/30 06:37:31;;;;;;;12.67;8.63;;;1.50;99.90;;;;;;5053975;28;20882;-82
2023/12/30 06:39:57;;;;;;;13.80;8.53;;;1.40;99.90;;;;;;5038604;28;20184;-82
2023/12/30 06:42:23;;;;;;;19.07;7.57;;;1.50;99.90;;;;;;5034013;28;20270;-81
2023/12/30 06:44:49;;;;;;;11.13;7.87;;;1.60;99.90;;;;;;5037042;28;20196;-79
2023/12/30 06:47:14;;;;;;;10.40;8.27;;;1.70;99.90;;;;;;5054492;28;20176;-81
2023/12/30 06:49:40;;;;;;;11.03;8.57;;;1.70;99.90;;;;;;5049680;28;20296;-80
2023/12/30 06:52:06;;;;;;;12.17;8.97;;;1.70;99.90;;;;;;5035823;28;20181;-81
2023/12/30 06:54:33;;;;;;;11.73;8.40;;;1.70;99.90;;;;;;5036308;28;20231;-83
2023/12/30 06:56:59;;;;;;;9.33;7.40;;;1.70;99.90;;;;;;5035930;28;20178;-83
2023/12/30 06:59:25;;;;;;;13.30;9.17;;;1.80;99.90;;;;;;5036810;28;20174;-83
2023/12/30 07:01:50;;;;;;;10.03;7.90;;;1.80;99.90;;;;;;5034943;28;20274;-82
2023/12/30 07:04:16;;;;;;;13.60;8.00;;;1.80;99.90;;;;;;5034716;28;20216;-83
2023/12/30 07:06:42;;;;;;;12.83;8.73;;;1.70;99.90;;;;;;5035959;28;20278;-82
2023/12/30 07:09:08;;;;;;;12.30;7.97;;;1.70;99.90;;;;;;5037040;28;20235;-83
2023/12/30 07:11:33;;;;;;;13.80;8.90;;;1.80;99.90;;;;;;5039386;28;20206;-83
2023/12/30 07:13:59;;;;;;;13.13;7.77;;;1.80;99.90;;;;;;5041687;28;20184;-81
2023/12/30 07:16:25;;;;;;;8.67;6.10;;;1.90;99.90;;;;;;5039766;28;20177;-81
2023/12/30 07:18:51;;;;;;;6.27;5.43;;;2.10;99.90;;;;;;5041305;28;20253;-82
2023/12/30 07:21:18;;;;;;;15.43;6.60;;;2.20;99.90;;;;;;5036135;28;20195;-78
2023/12/30 07:23:43;;;;;;;11.77;7.37;;;2.30;99.90;;;;;;5045932;28;20192;-83
2023/12/30 07:26:09;;;;;;;11.37;7.77;;;2.30;99.90;;;;;;5034369;28;20212;-82
2023/12/30 07:28:35;;;;;;;10.17;7.13;;;2.40;99.90;;;;;;5034383;28;20201;-79
2023/12/30 07:31:01;;;;;;;8.83;7.67;;;2.40;99.90;;;;;;5036540;28;20201;-83
2023/12/30 07:33:27;;;;;;;8.10;6.87;;;2.50;99.90;;;;;;5037058;28;20264;-81
2023/12/30 07:35:56;;;;;;;9.07;6.77;;;2.50;99.90;;;;;;5036811;28;20234;-81
2023/12/30 07:38:22;;;;;;;10.60;7.20;;;2.60;99.90;;;;;;5052834;28;20196;-81
2023/12/30 07:40:48;;;;;;;7.67;6.23;;;2.70;99.90;;;;;;5055913;28;20910;-83
2023/12/30 07:43:13;;;;;;;9.13;7.60;;;2.80;99.90;;;;;;5054214;28;20180;-81
2023/12/30 07:45:39;;;;;;;17.53;12.13;;;2.70;99.90;;;;;;5058066;28;20185;-83
2023/12/30 07:48:05;;;;;;;22.60;14.40;;;2.80;99.90;;;;;;5057904;28;20179;-82
2023/12/30 07:50:31;;;;;;;18.90;12.33;;;2.80;99.90;;;;;;5058810;28;20283;-80
2023/12/30 07:52:57;;;;;;;15.10;10.97;;;2.80;99.90;;;;;;5059161;28;20177;-79
2023/12/30 07:55:24;;;;;;;17.77;10.10;;;2.80;99.90;;;;;;5059470;28;20273;-76
2023/12/30 07:57:50;;;;;;;11.90;8.30;;;2.80;99.90;;;;;;5069374;28;20674;-79
2023/12/30 08:00:16;;;;;;;11.77;7.10;;;2.80;99.90;;;;;;5069959;28;20259;-82
2023/12/30 08:02:42;;;;;;;12.03;8.17;;;2.80;99.90;;;;;;5067073;28;20179;-82
2023/12/30 08:05:08;;;;;;;11.77;8.27;;;3.00;99.90;;;;;;5064791;28;20177;-75
2023/12/30 08:07:34;;;;;;;13.07;9.50;;;3.00;99.90;;;;;;5070275;28;20163;-79
2023/12/30 08:10:00;;;;;;;17.13;9.17;;;2.90;99.90;;;;;;5093401;28;20227;-81
2023/12/30 08:12:25;;;;;;;12.77;8.57;;;2.90;99.90;;;;;;5058068;28;20196;-82
2023/12/30 08:14:52;;;;;;;11.03;8.60;;;2.80;99.90;;;;;;5059465;28;20185;-78
2023/12/30 08:17:17;;;;;;;12.50;8.63;;;2.70;99.90;;;;;;5058842;28;20193;-78
2023/12/30 08:19:43;;;;;;;15.40;9.83;;;2.70;99.90;;;;;;5059063;28;20173;-77
2023/12/30 08:22:09;;;;;;;12.50;9.07;;;2.60;99.90;;;;;;5063231;28;20224;-77
2023/12/30 08:24:35;;;;;;;13.87;9.03;;;2.60;99.90;;;;;;5075043;28;20162;-80
2023/12/30 08:27:01;;;;;;;10.40;8.23;;;2.70;99.90;;;;;;5064225;28;20178;-77
2023/12/30 08:29:26;;;;;;;13.43;9.57;;;2.70;99.90;;;;;;5060887;28;20206;-83
2023/12/30 08:31:52;;;;;;;13.37;8.77;;;2.60;99.90;;;;;;5050620;28;20181;-83
2023/12/30 08:34:20;;;;;;;11.77;8.87;;;2.60;99.90;;;;;;5040678;28;20181;-80
2023/12/30 08:36:46;;;;;;;11.47;8.53;;;2.70;99.90;;;;;;5036171;28;20638;-77
2023/12/30 08:39:12;;;;;;;11.93;8.43;;;2.50;99.90;;;;;;5036788;28;20178;-82
2023/12/30 08:41:38;;;;;;;10.90;8.67;;;2.50;99.90;;;;;;5036884;28;20173;-80
2023/12/30 08:44:04;;;;;;;12.07;9.10;;;2.60;99.90;;;;;;5039201;28;20168;-85
2023/12/30 08:46:30;;;;;;;9.50;8.43;;;2.60;99.90;;;;;;5035731;28;20231;-82
2023/12/30 08:48:56;;;;;;;14.13;9.57;;;2.70;99.90;;;;;;5036186;28;20558;-82
2023/12/30 08:51:23;;;;;;;14.57;9.37;;;2.80;99.90;;;;;;5036442;28;20191;-81
2023/12/30 08:53:48;;;;;;;14.13;9.40;;;2.90;99.90;;;;;;5038102;28;20172;-84
2023/12/30 08:56:16;;;;;;;15.20;9.90;;;3.00;99.90;;;;;;5038783;28;20187;-83
2023/12/30 08:58:41;;;;;;;12.03;8.60;;;3.10;99.90;;;;;;5035127;28;20239;-82
2023/12/30 09:01:07;;;;;;;11.60;8.73;;;3.20;99.90;;;;;;5045888;28;20195;-84
2023/12/30 09:03:33;;;;;;;13.40;9.40;;;3.30;99.90;;;;;;5037966;28;20177;-83
2023/12/30 09:05:58;;;;;;;13.87;9.13;;;3.20;99.90;;;;;;5035730;28;20222;-84
2023/12/30 09:08:25;;;;;;;13.13;9.27;;;3.20;99.90;;;;;;5034269;28;20223;-83
2023/12/30 09:10:51;;;;;;;13.00;9.27;;;3.30;99.90;;;;;;5035305;28;20211;-84
2023/12/30 09:13:16;;;;;;;11.17;9.07;;;3.20;99.90;;;;;;5035835;28;20176;-80
2023/12/30 09:15:42;;;;;;;14.77;10.13;;;3.20;99.90;;;;;;5035460;28;20759;-81
2023/12/30 09:18:08;;;;;;;12.93;9.53;;;3.20;99.90;;;;;;5035649;28;20669;-81
2023/12/30 09:20:33;;;;;;;12.23;9.87;;;3.30;99.90;;;;;;5035841;28;20263;-85
2023/12/30 09:22:59;;;;;;;14.07;10.07;;;3.30;99.90;;;;;;5037730;28;20180;-82
2023/12/30 09:25:25;;;;;;;13.10;10.07;;;3.40;99.90;;;;;;5050638;28;20200;-82
2023/12/30 09:27:51;;;;;;;12.50;9.17;;;3.50;99.90;;;;;;5039303;28;20181;-83
2023/12/30 09:30:17;;;;;;;14.03;9.83;;;3.70;99.90;;;;;;5034758;28;20227;-83
2023/12/30 09:32:43;;;;;;;11.53;9.50;;;3.60;99.90;;;;;;5037583;28;20172;-85
2023/12/30 09:35:09;;;;;;;13.17;10.30;;;3.60;99.90;;;;;;5050524;28;20183;-85
2023/12/30 09:37:35;;;;;;;14.80;11.20;;;3.60;99.90;;;;;;5046129;28;20196;-84
2023/12/30 09:40:00;;;;;;;14.97;11.03;;;3.60;99.90;;;;;;5036844;28;20208;-83
2023/12/30 09:42:27;;;;;;;13.37;10.47;;;3.60;99.90;;;;;;5036753;28;20213;-83
2023/12/30 09:44:54;;;;;;;16.93;12.80;;;3.70;99.90;;;;;;5035516;28;20182;-80
2023/12/30 09:47:20;;;;;;;17.20;11.53;;;3.70;99.90;;;;;;5034542;28;20557;-85
2023/12/30 09:49:47;;;;;;;15.53;11.77;;;3.70;99.90;;;;;;5036553;28;20200;-84
2023/12/30 09:52:13;;;;;;;17.17;11.20;;;3.70;99.90;;;;;;5041214;28;20182;-80
2023/12/30 09:54:39;;;;;;;15.83;11.20;;;3.70;99.90;;;;;;5052028;28;20178;-82
2023/12/30 09:57:05;;;;;;;16.17;10.63;;;3.70;99.90;;;;;;5041490;28;20183;-85
2023/12/30 09:59:40;;;;;;;14.63;10.77;;;3.80;99.90;;;;;;5038874;28;20176;-83
2023/12/30 10:02:09;;;;;;;16.77;10.73;;;3.80;99.90;;;;;;5037226;28;20168;-84
2023/12/30 10:04:36;;;;;;;13.00;10.50;;;3.80;99.90;;;;;;5036610;28;20161;-83
2023/12/30 10:07:02;;;;;;;13.70;10.60;;;3.90;99.90;;;;;;5054793;28;20738;-80
2023/12/30 10:09:30;;;;;;;14.33;10.33;;;3.90;99.90;;;;;;5055428;28;20251;-82
2023/12/30 10:11:55;;;;;;;13.40;10.23;;;3.90;99.90;;;;;;5055163;28;20654;-79
2023/12/30 10:14:21;;;;;;;13.00;10.47;;;3.80;99.90;;;;;;5053794;28;20188;-79
2023/12/30 10:16:47;;;;;;;13.43;10.27;;;3.90;99.90;;;;;;5054412;28;20266;-79
2023/12/30 10:19:13;;;;;;;16.73;10.50;;;3.90;99.90;;;;;;5054791;28;20176;-79
2023/12/30 10:21:40;;;;;;;14.63;10.90;;;3.90;99.90;;;;;;5060055;28;20177;-80
2023/12/30 10:24:06;;;;;;;14.10;10.77;;;4.00;99.90;;;;;;5071513;28;20176;-83
2023/12/30 10:26:33;;;;;;;14.13;10.67;;;4.00;99.90;;;;;;5072481;28;20186;-78
2023/12/30 10:28:59;;;;;;;18.83;10.63;;;4.00;99.90;;;;;;5075004;28;20267;-81
2023/12/30 10:31:25;;;;;;;13.80;10.47;;;4.10;99.90;;;;;;5069624;28;20183;-80
2023/12/30 10:33:52;;;;;;;14.70;10.77;;;4.10;99.90;;;;;;5054185;28;20645;-78
2023/12/30 10:36:19;;;;;;;14.13;10.60;;;4.20;99.90;;;;;;5053258;28;20546;-78
2023/12/30 10:38:45;;;;;;;15.23;10.03;;;4.30;99.90;;;;;;5069675;28;20241;-81
2023/12/30 10:41:15;;;;;;;12.47;10.13;;;4.30;99.90;;;;;;5057693;28;20178;-77
2023/12/30 10:43:40;;;;;;;13.10;9.60;;;4.40;99.90;;;;;;5069674;28;20615;-79
2023/12/30 10:46:11;;;;;;;13.53;9.93;;;4.50;99.90;;;;;;5054356;28;20260;-77
2023/12/30 10:49:03;;;;;;;15.63;10.13;;;4.50;99.90;;;;;;5053295;28;20181;-80
2023/12/30 10:51:33;;;;;;;12.70;9.53;;;4.60;99.90;;;;;;5053162;28;20226;-80
2023/12/30 10:54:13;;;;;;;14.03;9.77;;;4.60;99.90;;;;;;5054090;28;20190;-79
2023/12/30 10:56:45;;;;;;;12.73;9.37;;;4.70;99.90;;;;;;5053121;28;20165;-78
2023/12/30 10:59:12;;;;;;;10.90;9.53;;;4.70;99.90;;;;;;5056539;28;20168;-77
2023/12/30 11:01:40;;;;;;;13.43;10.00;;;4.80;99.90;;;;;;5058054;28;20172;-78
2023/12/30 11:04:14;;;;;;;14.23;9.87;;;4.90;99.90;;;;;;5057000;28;20263;-81
2023/12/30 11:06:55;;;;;;;13.33;9.90;;;5.00;99.90;;;;;;5056333;28;20225;-82
2023/12/30 11:09:30;;;;;;;12.77;9.23;;;5.00;99.90;;;;;;5059330;28;20229;-78
2023/12/30 11:12:01;;;;;;;15.30;9.53;;;5.00;99.90;;;;;;5072870;28;20184;-79
2023/12/30 11:14:27;;;;;;;16.17;9.93;;;5.10;99.90;;;;;;5064953;28;20195;-78
2023/12/30 11:16:54;;;;;;;12.47;9.20;;;5.10;99.90;;;;;;5067352;28;20193;-78
2023/12/30 11:19:30;;;;;;;10.97;9.07;;;5.20;99.90;;;;;;5058090;28;20170;-77
2023/12/30 11:21:58;;;;;;;13.90;9.53;;;5.20;99.90;;;;;;5056445;28;20212;-78
2023/12/30 11:24:25;;;;;;;13.40;9.40;;;5.20;99.90;;;;;;5056935;28;20182;-77
2023/12/30 11:26:53;;;;;;;12.23;9.03;;;5.30;99.90;;;;;;5056257;28;20175;-78
2023/12/30 11:29:25;;;;;;;14.57;9.67;;;5.40;99.90;;;;;;5064308;28;20205;-79
2023/12/30 11:31:52;;;;;;;11.47;9.53;;;5.40;99.90;;;;;;5072198;28;20165;-80
2023/12/30 11:34:19;;;;;;;10.87;8.97;;;5.50;99.90;;;;;;5061038;28;20199;-79
2023/12/30 11:36:46;;;;;;;12.20;9.20;;;5.50;99.90;;;;;;5057785;28;20187;-75
2023/12/30 11:39:22;;;;;;;13.03;10.93;;;5.50;99.90;;;;;;5071204;28;20168;-78
2023/12/30 11:41:49;;;;;;;12.93;10.07;;;5.60;99.90;;;;;;5067542;28;20928;-77
2023/12/30 11:44:15;;;;;;;13.07;9.50;;;5.60;99.90;;;;;;5058202;28;20196;-79
2023/12/30 11:46:41;;;;;;;11.30;9.47;;;5.60;99.90;;;;;;5056751;28;20181;-80
2023/12/30 11:49:07;;;;;;;11.17;9.13;;;5.60;99.90;;;;;;5057693;28;20229;-84
2023/12/30 11:51:33;;;;;;;12.37;9.03;;;5.60;99.90;;;;;;5058002;28;20192;-79
2023/12/30 11:54:05;;;;;;;9.83;8.00;;;5.70;99.90;;;;;;5057516;28;20176;-79
2023/12/30 11:56:32;;;;;;;9.27;7.70;;;5.70;99.90;;;;;;5059872;28;20644;-80
2023/12/30 11:58:58;;;;;;;11.83;8.73;;;5.80;99.90;;;;;;5062964;28;20201;-79
2023/12/30 12:01:24;;;;;;;11.30;9.07;;;5.80;99.90;;;;;;5066401;28;20175;-80
2023/12/30 12:03:51;;;;;;;14.13;9.43;;;5.80;99.90;;;;;;5061055;28;20265;-78
2023/12/30 12:06:17;;;;;;;12.47;9.77;;;5.90;99.90;;;;;;5057113;28;20170;-80
2023/12/30 12:08:43;;;;;;;11.77;8.70;;;5.90;99.90;;;;;;5057639;28;20358;-80
2023/12/30 12:11:08;;;;;;;10.90;8.80;;;5.90;99.90;;;;;;5056064;28;20187;-79
2023/12/30 12:13:34;;;;;;;9.77;7.67;;;5.90;99.90;;;;;;5055356;28;20192;-79
2023/12/30 12:16:00;;;;;;;12.40;9.13;;;6.00;99.90;;;;;;5063892;28;20181;-78
2023/12/30 12:18:26;;;;;;;9.87;8.47;;;6.00;99.90;;;;;;5068143;28;20176;-78
2023/12/30 12:20:53;;;;;;;9.10;6.90;;;6.00;99.90;;;;;;5071839;28;20174;-78
2023/12/30 12:23:23;;;;;;;7.97;7.17;;;6.00;99.90;;;;;;5062695;28;20184;-79
2023/12/30 12:25:48;;;;;;;8.70;6.40;;;6.10;99.90;;;;;;5057550;28;20316;-79
2023/12/30 12:28:20;;;;;;;8.47;6.90;;;6.10;99.90;;;;;;5064157;28;20199;-78
2023/12/30 12:30:46;;;;;;;8.43;6.50;;;6.20;99.90;;;;;;5055766;28;20298;-78
2023/12/30 12:33:13;;;;;;;6.77;6.10;;;6.30;99.90;;;;;;5056097;28;20208;-78
2023/12/30 12:35:39;;;;;;;7.10;5.20;;;6.40;99.90;;;;;;5056466;28;20202;-78
2023/12/30 12:38:05;;;;;;;6.53;5.40;;;6.40;99.90;;;;;;5058109;28;20177;-81
2023/12/30 12:40:32;;;;;;;9.90;5.60;;;6.50;99.90;;;;;;5055367;28;20229;-79
2023/12/30 12:42:58;;;;;;;5.30;4.80;;;6.50;99.90;;;;;;5057226;28;20183;-78